Bahawalpur Weather



Bahawalpur's Current Weather

Temprature 32.55o few clouds

few clouds

Rain: 0 %

Min Temprature32.55o
Max Temprature32.55o
Humidity34
Wind Speed6 m/h
Sun Rise05:45:51
Sun Set18:46:50
Current Time: 23-Aug-2019 05:37:36
Lat/Lon: 29.39, 71.66




Bahawalpur's Geo Location



Bahawalpur's Weather Forecast

Time Overall Temp Min Temp Max Temp Humidity Wind Speed Rain
23-Aug-2019 (Fri)
08:00:00 broken clouds 34.120 34.117 34.120 39 8.01 m/h 0 %
11:00:00 scattered clouds 39.950 39.950 39.950 25 7.33 m/h 0 %
14:00:00 clear sky 43.330 43.330 43.331 17 5.38 m/h 0 %
17:00:00 scattered clouds 41.610 41.610 41.611 18 4.22 m/h 0 %
20:00:00 few clouds 37.350 37.350 37.350 22 5.55 m/h 0 %
23:00:00 few clouds 35.742 35.742 35.742 26 5.46 m/h 0 %
24-Aug-2019 (Sat)
02:00:00 clear sky 33.631 33.631 33.631 30 4.84 m/h 0 %
05:00:00 clear sky 32.355 32.355 32.355 34 5.94 m/h 0 %
08:00:00 clear sky 33.997 33.997 33.997 42 8.38 m/h 0 %
11:00:00 clear sky 40.069 40.069 40.069 24 8.21 m/h 0 %
14:00:00 clear sky 43.769 43.769 43.769 17 6.82 m/h 0 %
17:00:00 clear sky 41.923 41.923 41.923 17 6.8 m/h 0 %
20:00:00 clear sky 36.950 36.950 36.950 23 4.47 m/h 0 %
23:00:00 clear sky 36.069 36.069 36.069 25 6.13 m/h 0 %
25-Aug-2019 (Sun)
02:00:00 clear sky 33.831 33.831 33.831 26 5.18 m/h 0 %
05:00:00 clear sky 32.157 32.157 32.157 35 6.34 m/h 0 %
08:00:00 clear sky 33.014 33.014 33.014 48 8.14 m/h 0 %
11:00:00 clear sky 39.616 39.616 39.616 28 8.37 m/h 0 %
14:00:00 clear sky 43.850 43.850 43.850 17 5.8 m/h 0 %
17:00:00 clear sky 42.550 42.550 42.550 17 6.72 m/h 0 %
20:00:00 clear sky 36.781 36.781 36.781 24 4.31 m/h 0 %
23:00:00 clear sky 35.911 35.911 35.911 27 6.45 m/h 0 %
26-Aug-2019 (Mon)
02:00:00 overcast clouds 34.065 34.065 34.065 31 5.87 m/h 0 %
05:00:00 broken clouds 32.950 32.950 32.950 35 6.27 m/h 0 %
08:00:00 broken clouds 34.567 34.567 34.567 40 6.61 m/h 0 %
11:00:00 scattered clouds 41.172 41.172 41.172 25 6.47 m/h 0 %
14:00:00 few clouds 44.884 44.884 44.884 14 2.36 m/h 0 %
17:00:00 broken clouds 43.820 43.820 43.820 13 2.17 m/h 0 %
20:00:00 overcast clouds 38.372 38.372 38.372 20 1.92 m/h 0 %
23:00:00 broken clouds 36.014 36.014 36.014 23 3.3 m/h 0 %
27-Aug-2019 (Tue)
02:00:00 clear sky 33.916 33.916 33.916 28 2.91 m/h 0 %
05:00:00 scattered clouds 33.450 33.450 33.450 37 4.16 m/h 0 %
08:00:00 overcast clouds 36.835 36.835 36.835 30 5.23 m/h 0 %
11:00:00 broken clouds 42.536 42.536 42.536 22 5.66 m/h 0 %
14:00:00 broken clouds 43.936 43.936 43.936 20 5.25 m/h 0 %
17:00:00 broken clouds 42.665 42.665 42.665 20 4.99 m/h 0 %
20:00:00 broken clouds 36.750 36.750 36.750 34 4.23 m/h 0 %
23:00:00 scattered clouds 35.550 35.550 35.550 37 2.81 m/h 0 %
28-Aug-2019 (Wed)
02:00:00 clear sky 34.257 34.257 34.257 41 1.78 m/h 0 %
05:00:00 few clouds 32.872 32.872 32.872 46 1.19 m/h 0 %


Bahawalpur's Tourist Spots

Historical Places in Bahawalpur

Famous Cities (61)